地図

経路データ

SID SEASON NUMBER BASIN SUBBASIN NAME ISO_TIME NATURE LAT LON WMO_WIND WMO_PRES WMO_AGENCY TRACK_TYPE DIST2LAND LANDFALL IFLAG USA_AGENCY USA_ATCF_ID USA_LAT USA_LON USA_RECORD USA_STATUS USA_WIND USA_PRES USA_SSHS USA_R34_NE USA_R34_SE USA_R34_SW USA_R34_NW USA_R50_NE USA_R50_SE USA_R50_SW USA_R50_NW USA_R64_NE USA_R64_SE USA_R64_SW USA_R64_NW USA_POCI USA_ROCI USA_RMW USA_EYE TOKYO_LAT TOKYO_LON TOKYO_GRADE TOKYO_WIND TOKYO_PRES TOKYO_R50_DIR TOKYO_R50_LONG TOKYO_R50_SHORT TOKYO_R30_DIR TOKYO_R30_LONG TOKYO_R30_SHORT TOKYO_LAND CMA_LAT CMA_LON CMA_CAT CMA_WIND CMA_PRES HKO_LAT HKO_LON HKO_CAT HKO_WIND HKO_PRES NEWDELHI_LAT NEWDELHI_LON NEWDELHI_GRADE NEWDELHI_WIND NEWDELHI_PRES NEWDELHI_CI NEWDELHI_DP NEWDELHI_POCI REUNION_LAT REUNION_LON REUNION_TYPE REUNION_WIND REUNION_PRES REUNION_TNUM REUNION_CI REUNION_RMW REUNION_R34_NE REUNION_R34_SE REUNION_R34_SW REUNION_R34_NW REUNION_R50_NE REUNION_R50_SE REUNION_R50_SW REUNION_R50_NW REUNION_R64_NE REUNION_R64_SE REUNION_R64_SW REUNION_R64_NW BOM_LAT BOM_LON BOM_TYPE BOM_WIND BOM_PRES BOM_TNUM BOM_CI BOM_RMW BOM_R34_NE BOM_R34_SE BOM_R34_SW BOM_R34_NW BOM_R50_NE BOM_R50_SE BOM_R50_SW BOM_R50_NW BOM_R64_NE BOM_R64_SE BOM_R64_SW BOM_R64_NW BOM_ROCI BOM_POCI BOM_EYE BOM_POS_METHOD BOM_PRES_METHOD NADI_LAT NADI_LON NADI_CAT NADI_WIND NADI_PRES WELLINGTON_LAT WELLINGTON_LON WELLINGTON_WIND WELLINGTON_PRES DS824_LAT DS824_LON DS824_STAGE DS824_WIND DS824_PRES TD9636_LAT TD9636_LON TD9636_STAGE TD9636_WIND TD9636_PRES TD9635_LAT TD9635_LON TD9635_WIND TD9635_PRES TD9635_ROCI NEUMANN_LAT NEUMANN_LON NEUMANN_CLASS NEUMANN_WIND NEUMANN_PRES MLC_LAT MLC_LON MLC_CLASS MLC_WIND MLC_PRES USA_GUST BOM_GUST BOM_GUST_PER REUNION_GUST REUNION_GUST_PER USA_SEAHGT USA_SEARAD_NE USA_SEARAD_SE USA_SEARAD_SW USA_SEARAD_NW STORM_SPEED STORM_DIR
1961127N06107 1961 35 WP MM NOT_NAMED 1961-05-06 12:00:00 NR 6.40000 107.100 main 280 280 __________O___ -1 6.40000 107.100 1 9 313
1961127N06107 1961 35 WP MM NOT_NAMED 1961-05-06 15:00:00 NR 6.70024 106.771 main 287 241 __________P___ -1 6.70024 106.771 1 9 313
1961127N06107 1961 35 WP MM NOT_NAMED 1961-05-06 18:00:00 NR 7.00029 106.453 main 241 195 __________P___ -1 7.00029 106.453 1 9 315
1961127N06107 1961 35 WP MM NOT_NAMED 1961-05-06 21:00:00 NR 7.30019 106.159 main 195 149 __________P___ -1 7.30019 106.159 1 8 318
1961127N06107 1961 35 WP MM NOT_NAMED 1961-05-07 00:00:00 NR 7.60000 105.900 main 149 110 __________O___ -1 7.60000 105.900 1 8 322
1961127N06107 1961 35 WP MM NOT_NAMED 1961-05-07 03:00:00 NR 7.89984 105.683 main 110 70 __________P___ -1 7.89984 105.683 1 7 326
1961127N06107 1961 35 WP MM NOT_NAMED 1961-05-07 06:00:00 NR 8.19978 105.492 main 70 33 __________P___ -1 8.19978 105.492 1 7 328
1961127N06107 1961 35 WP MM NOT_NAMED 1961-05-07 09:00:00 NR 8.49984 105.305 main 33 0 __________P___ -1 8.49984 105.305 1 7 327
1961127N06107 1961 35 WP MM NOT_NAMED 1961-05-07 12:00:00 NR 8.80000 105.100 main 0 0 __________O___ -1 8.80000 105.100 1 7 322
1961127N06107 1961 35 WP MM NOT_NAMED 1961-05-07 15:00:00 NR 9.06341 104.858 main 0 0 __________P___ -1 9.06341 104.858 1 7 317
1961127N06107 1961 35 WP MM NOT_NAMED 1961-05-07 18:00:00 NR 9.33245 104.594 main 32 32 __________P___ -1 9.33245 104.594 1 8 317
1961127N06107 1961 35 WP MM NOT_NAMED 1961-05-07 21:00:00 NR 9.63525 104.308 main 64 55 __________P___ -1 9.63525 104.308 1 9 319
1961127N06107 1961 35 WP MM NOT_NAMED 1961-05-08 00:00:00 NR 10.0000 104.000 main 60 11 __________O___ -1 10.0000 104.000 1 10 323
1961127N06107 1961 35 WP MM NOT_NAMED 1961-05-08 03:00:00 NR 10.4644 103.672 main 0 0 __________P___ -1 10.4644 103.672 1 12 326
1961127N06107 1961 35 WP MM NOT_NAMED 1961-05-08 06:00:00 NR 10.9901 103.323 main 0 0 __________P___ -1 10.9901 103.323 1 13 327
1961127N06107 1961 35 WP MM NOT_NAMED 1961-05-08 09:00:00 NR 11.5457 102.962 main 0 0 __________P___ -1 11.5457 102.962 1 13 327
1961127N06107 1961 35 WP MM NOT_NAMED 1961-05-08 12:00:00 NR 12.1000 102.600 main 0 0 __________O___ -1 12.1000 102.600 1 13 327
1961127N06107 1961 35 WP MM NOT_NAMED 1961-05-08 15:00:00 NR 12.6285 102.244 main 0 0 __________P___ -1 12.6285 102.244 1 12 326
1961127N06107 1961 35 WP MM NOT_NAMED 1961-05-08 18:00:00 NR 13.1327 101.893 main 0 0 __________P___ -1 13.1327 101.893 1 12 326
1961127N06107 1961 35 WP MM NOT_NAMED 1961-05-08 21:00:00 NR 13.6205 101.546 main 0 0 __________P___ -1 13.6205 101.546 1 12 325
1961127N06107 1961 35 WP MM NOT_NAMED 1961-05-09 00:00:00 NR 14.1000 101.200 main 0 __________O___ -1 14.1000 101.200 1 12 325

デジタル台風データ・検索

IBTrACS Databaseについて

本データベースは、米国NOAAが公開する1842年以降の世界の熱帯低気圧のベストトラックデータアーカイブInternational Best Track Archive for Climate Stewardship (IBTrACS)を、ウェブで閲覧しやすい形式に変換したものです。

最終更新日:2021-10-21